NVY845 KTEB-KFFA
Flight info
| Callsign | NVY845 |
|---|---|
| Flight time | N/A |
| Altitude | 28000 |
| Route | COL SIE CCV/N0257F290 |
| Aircraft | P46T/L-SBDGRWY/SB1 |
Departure
| Time | N/A |
|---|---|
| Airport | Teterboro Airport (KTEB) |
Arrival
| Time | 2026-05-05 15:04 |
|---|---|
| Airport | First Flight Airport (KFFA) |
| Time | Latitude | Longitude | Altitude | Speed | Heading |
|---|---|---|---|---|---|
| 2026-05-05 13:54 | 40.02840 | -74.31109 | 28039 ft | 222 kts | 209° |
| 2026-05-05 13:54 | 40.01390 | -74.31879 | 28043 ft | 228 kts | 209° |
| 2026-05-05 13:54 | 39.99909 | -74.32666 | 28039 ft | 233 kts | 209° |
| 2026-05-05 13:54 | 39.98397 | -74.33469 | 28042 ft | 236 kts | 209° |
| 2026-05-05 13:55 | 39.96871 | -74.34279 | 28053 ft | 238 kts | 209° |
| 2026-05-05 13:55 | 39.95328 | -74.35099 | 28062 ft | 240 kts | 209° |
| 2026-05-05 13:55 | 39.93776 | -74.35922 | 28057 ft | 242 kts | 209° |
| 2026-05-05 13:55 | 39.92215 | -74.36750 | 28054 ft | 243 kts | 208° |
| 2026-05-05 13:56 | 39.90669 | -74.37569 | 28050 ft | 243 kts | 208° |
| 2026-05-05 13:56 | 39.89101 | -74.38401 | 28052 ft | 244 kts | 208° |
| 2026-05-05 13:56 | 39.87529 | -74.39233 | 28057 ft | 244 kts | 208° |
| 2026-05-05 13:56 | 39.85957 | -74.40066 | 28056 ft | 244 kts | 209° |
| 2026-05-05 13:57 | 39.84440 | -74.41020 | 28032 ft | 241 kts | 214° |
| 2026-05-05 13:57 | 39.82959 | -74.42032 | 28037 ft | 238 kts | 212° |
| 2026-05-05 13:57 | 39.81501 | -74.42936 | 28026 ft | 226 kts | 212° |
| 2026-05-05 13:57 | 39.80153 | -74.43743 | 28027 ft | 204 kts | 212° |
| 2026-05-05 13:58 | 39.78894 | -74.44467 | 28030 ft | 194 kts | 211° |
| 2026-05-05 13:58 | 39.77673 | -74.45160 | 28034 ft | 189 kts | 211° |
| 2026-05-05 13:58 | 39.76507 | -74.45815 | 28024 ft | 180 kts | 211° |
| 2026-05-05 13:58 | 39.75372 | -74.46442 | 28031 ft | 174 kts | 211° |
| 2026-05-05 13:59 | 39.72999 | -74.47501 | 28054 ft | 191 kts | 206° |
| 2026-05-05 13:59 | 39.71705 | -74.48058 | 28051 ft | 201 kts | 206° |
| 2026-05-05 14:00 | 39.68993 | -74.49253 | 28058 ft | 209 kts | 206° |
| 2026-05-05 14:00 | 39.68078 | -74.49659 | 28058 ft | 211 kts | 206° |
| 2026-05-05 14:00 | 39.66691 | -74.50275 | 28060 ft | 211 kts | 206° |
| 2026-05-05 14:00 | 39.64858 | -74.51088 | 28060 ft | 209 kts | 207° |
| 2026-05-05 14:01 | 39.63513 | -74.51783 | 28056 ft | 207 kts | 210° |
| 2026-05-05 14:01 | 39.62191 | -74.52513 | 28057 ft | 207 kts | 210° |
| 2026-05-05 14:01 | 39.60862 | -74.53221 | 28058 ft | 207 kts | 210° |
| 2026-05-05 14:01 | 39.59522 | -74.53924 | 28058 ft | 207 kts | 209° |
| 2026-05-05 14:02 | 39.58638 | -74.54387 | 28060 ft | 207 kts | 209° |
| 2026-05-05 14:02 | 39.57305 | -74.55088 | 28055 ft | 207 kts | 210° |
| 2026-05-05 14:02 | 39.55991 | -74.55779 | 28058 ft | 207 kts | 209° |
| 2026-05-05 14:02 | 39.54208 | -74.56717 | 28056 ft | 206 kts | 209° |
| 2026-05-05 14:03 | 39.52879 | -74.57416 | 28057 ft | 206 kts | 210° |
| 2026-05-05 14:03 | 39.52009 | -74.57873 | 28062 ft | 207 kts | 209° |
| 2026-05-05 14:03 | 39.50668 | -74.58578 | 28062 ft | 210 kts | 209° |
| 2026-05-05 14:03 | 39.48850 | -74.59532 | 28065 ft | 214 kts | 209° |
| 2026-05-05 14:04 | 39.47462 | -74.60260 | 28065 ft | 216 kts | 209° |
| 2026-05-05 14:04 | 39.46524 | -74.60752 | 28062 ft | 217 kts | 209° |
| 2026-05-05 14:04 | 39.45099 | -74.61499 | 28065 ft | 220 kts | 209° |
| 2026-05-05 14:04 | 39.43209 | -74.62490 | 28061 ft | 222 kts | 208° |
| 2026-05-05 14:05 | 39.41775 | -74.63240 | 28063 ft | 223 kts | 208° |
| 2026-05-05 14:05 | 39.40331 | -74.63996 | 28063 ft | 225 kts | 208° |
| 2026-05-05 14:05 | 39.39349 | -74.64510 | 28063 ft | 227 kts | 208° |
| 2026-05-05 14:05 | 39.37898 | -74.65269 | 28065 ft | 229 kts | 208° |
| 2026-05-05 14:06 | 39.36417 | -74.66044 | 28064 ft | 231 kts | 208° |
| 2026-05-05 14:06 | 39.34924 | -74.66823 | 28065 ft | 232 kts | 208° |
| 2026-05-05 14:06 | 39.33426 | -74.67606 | 28064 ft | 233 kts | 208° |
| 2026-05-05 14:06 | 39.31921 | -74.68391 | 28067 ft | 234 kts | 208° |
| 2026-05-05 14:07 | 39.30410 | -74.69180 | 28067 ft | 234 kts | 208° |
| 2026-05-05 14:07 | 39.28902 | -74.69967 | 28069 ft | 234 kts | 208° |
| 2026-05-05 14:07 | 39.27383 | -74.70758 | 28071 ft | 236 kts | 208° |
| 2026-05-05 14:07 | 39.25879 | -74.71543 | 28072 ft | 238 kts | 208° |
| 2026-05-05 14:08 | 39.24342 | -74.72343 | 28073 ft | 239 kts | 208° |
| 2026-05-05 14:08 | 39.22793 | -74.73150 | 28059 ft | 240 kts | 207° |
| 2026-05-05 14:08 | 39.21244 | -74.73955 | 28063 ft | 240 kts | 207° |
| 2026-05-05 14:08 | 39.19692 | -74.74762 | 28070 ft | 241 kts | 207° |
| 2026-05-05 14:09 | 39.18136 | -74.75572 | 28075 ft | 241 kts | 207° |
| 2026-05-05 14:09 | 39.16580 | -74.76380 | 28076 ft | 241 kts | 207° |
| 2026-05-05 14:09 | 39.15021 | -74.77190 | 28079 ft | 241 kts | 207° |
| 2026-05-05 14:09 | 39.13462 | -74.77999 | 28080 ft | 242 kts | 207° |
| 2026-05-05 14:10 | 39.11925 | -74.78797 | 28079 ft | 242 kts | 207° |
| 2026-05-05 14:10 | 39.10365 | -74.79605 | 28078 ft | 242 kts | 207° |
| 2026-05-05 14:10 | 39.08849 | -74.80510 | 28079 ft | 238 kts | 214° |
| 2026-05-05 14:10 | 39.07402 | -74.81552 | 28081 ft | 239 kts | 214° |
| 2026-05-05 14:11 | 39.05941 | -74.82573 | 28079 ft | 239 kts | 213° |
| 2026-05-05 14:11 | 39.04480 | -74.83593 | 28080 ft | 239 kts | 213° |
| 2026-05-05 14:11 | 39.03021 | -74.84620 | 28076 ft | 239 kts | 213° |
| 2026-05-05 14:11 | 39.01562 | -74.85646 | 28077 ft | 239 kts | 213° |
| 2026-05-05 14:12 | 39.00104 | -74.86670 | 28074 ft | 239 kts | 213° |
| 2026-05-05 14:12 | 38.98665 | -74.87680 | 28075 ft | 239 kts | 213° |
| 2026-05-05 14:12 | 38.97205 | -74.88704 | 28073 ft | 239 kts | 213° |
| 2026-05-05 14:12 | 38.95746 | -74.89727 | 28075 ft | 239 kts | 213° |
| 2026-05-05 14:13 | 38.94288 | -74.90748 | 28075 ft | 239 kts | 213° |
| 2026-05-05 14:13 | 38.92831 | -74.91770 | 28074 ft | 239 kts | 213° |
| 2026-05-05 14:13 | 38.91374 | -74.92790 | 28073 ft | 239 kts | 213° |
| 2026-05-05 14:13 | 38.89916 | -74.93810 | 28074 ft | 239 kts | 213° |
| 2026-05-05 14:14 | 38.88457 | -74.94831 | 28073 ft | 239 kts | 213° |
| 2026-05-05 14:14 | 38.87020 | -74.95836 | 28073 ft | 239 kts | 213° |
| 2026-05-05 14:14 | 38.85564 | -74.96853 | 28073 ft | 238 kts | 213° |
| 2026-05-05 14:14 | 38.84107 | -74.97871 | 28073 ft | 238 kts | 213° |
| 2026-05-05 14:15 | 38.82158 | -74.99232 | 28069 ft | 238 kts | 212° |
| 2026-05-05 14:15 | 38.81196 | -74.99903 | 28068 ft | 238 kts | 212° |
| 2026-05-05 14:15 | 38.79744 | -75.00916 | 28068 ft | 238 kts | 212° |
| 2026-05-05 14:15 | 38.78291 | -75.01929 | 28070 ft | 238 kts | 212° |
| 2026-05-05 14:16 | 38.76859 | -75.02927 | 28072 ft | 238 kts | 212° |
| 2026-05-05 14:16 | 38.75407 | -75.03939 | 28072 ft | 238 kts | 212° |
| 2026-05-05 14:16 | 38.73954 | -75.04950 | 28072 ft | 238 kts | 212° |
| 2026-05-05 14:16 | 38.72501 | -75.05962 | 28078 ft | 238 kts | 212° |
| 2026-05-05 14:17 | 38.71048 | -75.06973 | 28075 ft | 238 kts | 212° |
| 2026-05-05 14:17 | 38.69594 | -75.07983 | 28076 ft | 238 kts | 212° |
| 2026-05-05 14:17 | 38.68136 | -75.08997 | 28076 ft | 238 kts | 212° |
| 2026-05-05 14:17 | 38.66682 | -75.10007 | 28077 ft | 238 kts | 212° |
| 2026-05-05 14:18 | 38.65224 | -75.11020 | 28079 ft | 238 kts | 212° |
| 2026-05-05 14:18 | 38.63766 | -75.12031 | 28080 ft | 238 kts | 212° |
| 2026-05-05 14:18 | 38.62329 | -75.13028 | 28075 ft | 238 kts | 212° |
| 2026-05-05 14:18 | 38.60873 | -75.14038 | 28082 ft | 238 kts | 212° |
| 2026-05-05 14:19 | 38.59417 | -75.15047 | 28082 ft | 238 kts | 212° |
| 2026-05-05 14:19 | 38.57959 | -75.16057 | 28082 ft | 238 kts | 212° |
| 2026-05-05 14:19 | 38.56500 | -75.17068 | 28084 ft | 238 kts | 212° |
| 2026-05-05 14:19 | 38.55041 | -75.18077 | 28085 ft | 239 kts | 212° |
| 2026-05-05 14:20 | 38.53580 | -75.19087 | 28090 ft | 239 kts | 212° |
| 2026-05-05 14:20 | 38.52120 | -75.20098 | 28091 ft | 239 kts | 212° |
| 2026-05-05 14:20 | 38.50676 | -75.21095 | 28090 ft | 239 kts | 212° |
| 2026-05-05 14:20 | 38.49213 | -75.22106 | 28088 ft | 239 kts | 212° |
| 2026-05-05 14:21 | 38.47752 | -75.23115 | 28092 ft | 239 kts | 212° |
| 2026-05-05 14:21 | 38.46290 | -75.24124 | 28092 ft | 239 kts | 212° |
| 2026-05-05 14:21 | 38.44829 | -75.25133 | 28093 ft | 239 kts | 212° |
| 2026-05-05 14:21 | 38.43367 | -75.26139 | 28093 ft | 239 kts | 212° |
| 2026-05-05 14:22 | 38.41907 | -75.27146 | 28092 ft | 239 kts | 212° |
| 2026-05-05 14:22 | 38.40446 | -75.28152 | 28093 ft | 238 kts | 212° |
| 2026-05-05 14:22 | 38.39008 | -75.29143 | 28093 ft | 238 kts | 212° |
| 2026-05-05 14:22 | 38.37548 | -75.30148 | 28093 ft | 239 kts | 212° |
| 2026-05-05 14:23 | 38.36086 | -75.31153 | 28093 ft | 239 kts | 212° |
| 2026-05-05 14:23 | 38.34625 | -75.32158 | 28086 ft | 239 kts | 212° |
| 2026-05-05 14:23 | 38.33162 | -75.33163 | 28087 ft | 239 kts | 212° |
| 2026-05-05 14:23 | 38.31699 | -75.34169 | 28087 ft | 239 kts | 212° |
| 2026-05-05 14:24 | 38.30242 | -75.35169 | 28088 ft | 239 kts | 212° |
| 2026-05-05 14:24 | 38.28772 | -75.36178 | 28089 ft | 239 kts | 212° |
| 2026-05-05 14:24 | 38.27308 | -75.37182 | 28089 ft | 239 kts | 212° |
| 2026-05-05 14:24 | 38.25845 | -75.38186 | 28089 ft | 239 kts | 212° |
| 2026-05-05 14:25 | 38.24402 | -75.39175 | 28090 ft | 239 kts | 212° |
| 2026-05-05 14:25 | 38.22936 | -75.40179 | 28090 ft | 239 kts | 212° |
| 2026-05-05 14:25 | 38.21471 | -75.41182 | 28090 ft | 239 kts | 212° |
| 2026-05-05 14:25 | 38.20010 | -75.42182 | 28092 ft | 239 kts | 212° |
| 2026-05-05 14:26 | 38.18548 | -75.43183 | 28089 ft | 239 kts | 212° |
| 2026-05-05 14:26 | 38.17077 | -75.44188 | 28089 ft | 240 kts | 212° |
| 2026-05-05 14:26 | 38.15607 | -75.45193 | 28090 ft | 240 kts | 212° |
| 2026-05-05 14:26 | 38.14137 | -75.46197 | 28091 ft | 240 kts | 212° |
| 2026-05-05 14:27 | 38.12662 | -75.47205 | 28092 ft | 241 kts | 212° |
| 2026-05-05 14:27 | 38.11211 | -75.48195 | 28095 ft | 241 kts | 212° |
| 2026-05-05 14:27 | 38.09735 | -75.49203 | 28096 ft | 241 kts | 212° |
| 2026-05-05 14:27 | 38.08264 | -75.50205 | 28096 ft | 241 kts | 212° |
| 2026-05-05 14:28 | 38.06784 | -75.51214 | 28099 ft | 241 kts | 212° |
| 2026-05-05 14:28 | 38.05309 | -75.52219 | 28102 ft | 241 kts | 212° |
| 2026-05-05 14:28 | 38.03832 | -75.53225 | 28105 ft | 241 kts | 212° |
| 2026-05-05 14:28 | 38.02357 | -75.54229 | 28107 ft | 241 kts | 212° |
| 2026-05-05 14:29 | 38.00880 | -75.55234 | 28108 ft | 241 kts | 212° |
| 2026-05-05 14:29 | 37.99424 | -75.56224 | 28096 ft | 241 kts | 212° |
| 2026-05-05 14:29 | 37.97951 | -75.57225 | 28109 ft | 240 kts | 212° |
| 2026-05-05 14:29 | 37.96477 | -75.58227 | 28115 ft | 240 kts | 212° |
| 2026-05-05 14:30 | 37.95003 | -75.59228 | 28114 ft | 240 kts | 212° |
| 2026-05-05 14:30 | 37.93530 | -75.60228 | 28115 ft | 240 kts | 212° |
| 2026-05-05 14:30 | 37.92057 | -75.61227 | 28115 ft | 240 kts | 212° |
| 2026-05-05 14:30 | 37.90588 | -75.62224 | 28080 ft | 242 kts | 212° |
| 2026-05-05 14:31 | 37.89097 | -75.63235 | 28065 ft | 242 kts | 212° |
| 2026-05-05 14:31 | 37.87615 | -75.64238 | 28064 ft | 241 kts | 212° |
| 2026-05-05 14:31 | 37.86136 | -75.65240 | 28065 ft | 241 kts | 212° |
| 2026-05-05 14:31 | 37.84657 | -75.66241 | 28065 ft | 241 kts | 212° |
| 2026-05-05 14:32 | 37.83201 | -75.67227 | 28066 ft | 241 kts | 212° |
| 2026-05-05 14:32 | 37.81723 | -75.68226 | 28071 ft | 241 kts | 212° |
| 2026-05-05 14:32 | 37.80247 | -75.69224 | 28072 ft | 241 kts | 212° |
| 2026-05-05 14:32 | 37.78770 | -75.70222 | 28072 ft | 241 kts | 212° |
| 2026-05-05 14:33 | 37.77294 | -75.71219 | 28059 ft | 240 kts | 212° |
| 2026-05-05 14:33 | 37.75819 | -75.72215 | 28060 ft | 240 kts | 212° |
| 2026-05-05 14:33 | 37.74346 | -75.73209 | 28060 ft | 240 kts | 212° |
| 2026-05-05 14:33 | 37.72888 | -75.74192 | 28060 ft | 240 kts | 212° |
| 2026-05-05 14:34 | 37.71415 | -75.75185 | 28061 ft | 240 kts | 212° |
| 2026-05-05 14:34 | 37.69939 | -75.76180 | 28061 ft | 240 kts | 212° |
| 2026-05-05 14:34 | 37.68465 | -75.77173 | 28061 ft | 240 kts | 212° |
| 2026-05-05 14:34 | 37.66989 | -75.78167 | 28061 ft | 240 kts | 212° |
| 2026-05-05 14:35 | 37.65514 | -75.79160 | 28062 ft | 240 kts | 213° |
| 2026-05-05 14:35 | 37.64037 | -75.80153 | 28062 ft | 241 kts | 213° |
| 2026-05-05 14:35 | 37.62559 | -75.81146 | 28062 ft | 241 kts | 213° |
| 2026-05-05 14:35 | 37.61078 | -75.82142 | 28062 ft | 241 kts | 213° |
| 2026-05-05 14:36 | 37.59619 | -75.83122 | 28063 ft | 241 kts | 213° |
| 2026-05-05 14:36 | 37.58142 | -75.84114 | 28062 ft | 241 kts | 213° |
| 2026-05-05 14:36 | 37.56665 | -75.85105 | 28063 ft | 241 kts | 213° |
| 2026-05-05 14:36 | 37.55173 | -75.86106 | 28063 ft | 242 kts | 213° |
| 2026-05-05 14:37 | 37.53699 | -75.87094 | 28061 ft | 242 kts | 213° |
| 2026-05-05 14:37 | 37.52218 | -75.88087 | 28062 ft | 242 kts | 213° |
| 2026-05-05 14:37 | 37.50744 | -75.89074 | 28062 ft | 242 kts | 213° |
| 2026-05-05 14:37 | 37.49272 | -75.90060 | 28062 ft | 242 kts | 213° |
| 2026-05-05 14:38 | 37.47751 | -75.91078 | 28063 ft | 242 kts | 213° |
| 2026-05-05 14:38 | 37.46286 | -75.92058 | 28063 ft | 242 kts | 213° |
| 2026-05-05 14:38 | 37.44800 | -75.93051 | 28063 ft | 242 kts | 213° |
| 2026-05-05 14:38 | 37.43296 | -75.94004 | 28066 ft | 244 kts | 207° |
| 2026-05-05 14:39 | 37.41619 | -75.94474 | 28066 ft | 252 kts | 190° |
| 2026-05-05 14:39 | 37.39849 | -75.94325 | 28069 ft | 259 kts | 176° |
| 2026-05-05 14:39 | 37.38080 | -75.93880 | 28070 ft | 258 kts | 178° |
| 2026-05-05 14:39 | 37.36305 | -75.93599 | 28070 ft | 257 kts | 180° |
| 2026-05-05 14:40 | 37.34530 | -75.93297 | 28057 ft | 258 kts | 178° |
| 2026-05-05 14:40 | 37.32779 | -75.92934 | 28069 ft | 258 kts | 177° |
| 2026-05-05 14:40 | 37.31008 | -75.92564 | 28074 ft | 258 kts | 178° |
| 2026-05-05 14:40 | 37.29235 | -75.92210 | 28074 ft | 258 kts | 178° |
| 2026-05-05 14:41 | 37.27460 | -75.91859 | 28075 ft | 258 kts | 178° |
| 2026-05-05 14:41 | 37.25687 | -75.91505 | 28074 ft | 258 kts | 178° |
| 2026-05-05 14:41 | 37.23913 | -75.91150 | 28080 ft | 258 kts | 178° |
| 2026-05-05 14:41 | 37.22139 | -75.90796 | 28080 ft | 258 kts | 178° |
| 2026-05-05 14:42 | 37.20363 | -75.90442 | 28078 ft | 258 kts | 178° |
| 2026-05-05 14:42 | 37.18610 | -75.90092 | 28078 ft | 258 kts | 178° |
| 2026-05-05 14:42 | 37.16839 | -75.89739 | 28104 ft | 257 kts | 178° |
| 2026-05-05 14:42 | 37.15051 | -75.89384 | 27984 ft | 262 kts | 178° |
| 2026-05-05 14:43 | 37.13272 | -75.89028 | 28082 ft | 258 kts | 178° |
| 2026-05-05 14:43 | 37.11499 | -75.88675 | 28080 ft | 258 kts | 178° |
| 2026-05-05 14:43 | 37.09726 | -75.88323 | 28082 ft | 258 kts | 178° |
| 2026-05-05 14:43 | 37.07956 | -75.87971 | 28081 ft | 258 kts | 178° |
| 2026-05-05 14:44 | 37.06181 | -75.87619 | 28081 ft | 258 kts | 178° |
| 2026-05-05 14:44 | 37.04411 | -75.87267 | 28090 ft | 258 kts | 178° |
| 2026-05-05 14:44 | 37.02637 | -75.86915 | 28090 ft | 258 kts | 178° |
| 2026-05-05 14:44 | 37.00888 | -75.86566 | 28090 ft | 258 kts | 178° |
| 2026-05-05 14:45 | 36.99129 | -75.86218 | 28087 ft | 258 kts | 178° |
| 2026-05-05 14:45 | 36.97353 | -75.85866 | 28087 ft | 258 kts | 178° |
| 2026-05-05 14:45 | 36.95581 | -75.85514 | 28095 ft | 258 kts | 178° |
| 2026-05-05 14:45 | 36.93804 | -75.85163 | 28096 ft | 258 kts | 178° |
| 2026-05-05 14:46 | 36.92027 | -75.84810 | 28093 ft | 258 kts | 178° |
| 2026-05-05 14:46 | 36.90255 | -75.84460 | 28093 ft | 258 kts | 178° |
| 2026-05-05 14:46 | 36.88506 | -75.84114 | 28093 ft | 258 kts | 178° |
| 2026-05-05 14:46 | 36.86691 | -75.83755 | 28093 ft | 258 kts | 178° |
| 2026-05-05 14:47 | 36.84941 | -75.83409 | 28100 ft | 257 kts | 178° |
| 2026-05-05 14:47 | 36.83173 | -75.83060 | 28100 ft | 258 kts | 178° |
| 2026-05-05 14:47 | 36.81402 | -75.82711 | 28100 ft | 258 kts | 178° |
| 2026-05-05 14:47 | 36.79633 | -75.82361 | 28100 ft | 258 kts | 178° |
| 2026-05-05 14:48 | 36.77862 | -75.82012 | 28101 ft | 258 kts | 178° |
| 2026-05-05 14:48 | 36.76090 | -75.81663 | 28103 ft | 258 kts | 178° |
| 2026-05-05 14:48 | 36.74318 | -75.81313 | 28103 ft | 258 kts | 178° |
| 2026-05-05 14:48 | 36.72548 | -75.80965 | 28103 ft | 258 kts | 178° |
| 2026-05-05 14:49 | 36.70776 | -75.80616 | 28103 ft | 258 kts | 178° |
| 2026-05-05 14:49 | 36.69028 | -75.80272 | 28103 ft | 258 kts | 178° |
| 2026-05-05 14:49 | 36.67257 | -75.79924 | 28103 ft | 258 kts | 178° |
| 2026-05-05 14:49 | 36.65493 | -75.79577 | 28109 ft | 258 kts | 178° |
| 2026-05-05 14:50 | 36.63715 | -75.79227 | 28112 ft | 258 kts | 178° |
| 2026-05-05 14:50 | 36.61944 | -75.78889 | 28090 ft | 257 kts | 178° |
| 2026-05-05 14:50 | 36.60184 | -75.78493 | 28111 ft | 258 kts | 173° |
| 2026-05-05 14:50 | 36.58425 | -75.78019 | 28112 ft | 259 kts | 174° |
| 2026-05-05 14:51 | 36.56663 | -75.77534 | 28108 ft | 260 kts | 173° |
| 2026-05-05 14:51 | 36.54904 | -75.77024 | 28118 ft | 260 kts | 173° |
| 2026-05-05 14:51 | 36.53111 | -75.76512 | 27680 ft | 268 kts | 173° |
| 2026-05-05 14:51 | 36.51316 | -75.76006 | 27113 ft | 268 kts | 173° |
| 2026-05-05 14:52 | 36.49501 | -75.75489 | 26474 ft | 267 kts | 173° |
| 2026-05-05 14:52 | 36.47688 | -75.74973 | 25767 ft | 269 kts | 173° |
| 2026-05-05 14:52 | 36.45857 | -75.74453 | 25050 ft | 271 kts | 173° |
| 2026-05-05 14:52 | 36.44012 | -75.73929 | 24349 ft | 272 kts | 173° |
| 2026-05-05 14:53 | 36.42182 | -75.73408 | 23656 ft | 268 kts | 174° |
| 2026-05-05 14:53 | 36.40412 | -75.72903 | 22840 ft | 254 kts | 174° |
| 2026-05-05 14:53 | 36.38724 | -75.72423 | 22040 ft | 245 kts | 174° |
| 2026-05-05 14:53 | 36.37123 | -75.71780 | 21244 ft | 246 kts | 156° |
| 2026-05-05 14:54 | 36.35914 | -75.70311 | 20490 ft | 251 kts | 127° |
| 2026-05-05 14:54 | 36.35057 | -75.68444 | 19761 ft | 246 kts | 124° |
| 2026-05-05 14:54 | 36.33922 | -75.66975 | 19042 ft | 231 kts | 155° |
| 2026-05-05 14:54 | 36.32448 | -75.66457 | 18341 ft | 215 kts | 182° |
| 2026-05-05 14:55 | 36.30968 | -75.66412 | 17556 ft | 211 kts | 186° |
| 2026-05-05 14:55 | 36.29505 | -75.66361 | 16787 ft | 210 kts | 182° |
| 2026-05-05 14:55 | 36.28052 | -75.66218 | 16040 ft | 209 kts | 181° |
| 2026-05-05 14:55 | 36.26628 | -75.65898 | 15340 ft | 211 kts | 162° |
| 2026-05-05 14:56 | 36.25526 | -75.64733 | 14729 ft | 217 kts | 127° |
| 2026-05-05 14:56 | 36.25107 | -75.62947 | 14127 ft | 219 kts | 91° |
| 2026-05-05 14:56 | 36.25542 | -75.61175 | 13485 ft | 216 kts | 54° |
| 2026-05-05 14:56 | 36.26590 | -75.59922 | 12902 ft | 204 kts | 27° |
| 2026-05-05 14:57 | 36.27894 | -75.59536 | 12378 ft | 188 kts | 349° |
| 2026-05-05 14:57 | 36.29007 | -75.60183 | 11899 ft | 172 kts | 309° |
| 2026-05-05 14:57 | 36.29427 | -75.61462 | 11515 ft | 158 kts | 268° |
| 2026-05-05 14:57 | 36.28995 | -75.62658 | 11137 ft | 155 kts | 226° |
| 2026-05-05 14:58 | 36.28045 | -75.63265 | 10768 ft | 158 kts | 193° |
| 2026-05-05 14:58 | 36.26916 | -75.63404 | 10221 ft | 166 kts | 188° |
| 2026-05-05 14:58 | 36.25758 | -75.63525 | 9621 ft | 173 kts | 188° |
| 2026-05-05 14:58 | 36.24550 | -75.63656 | 9001 ft | 175 kts | 188° |
| 2026-05-05 14:59 | 36.23341 | -75.63790 | 8439 ft | 173 kts | 188° |
| 2026-05-05 14:59 | 36.22102 | -75.63927 | 7913 ft | 186 kts | 187° |
| 2026-05-05 14:59 | 36.20787 | -75.64073 | 7397 ft | 193 kts | 187° |
| 2026-05-05 14:59 | 36.19457 | -75.64221 | 6884 ft | 188 kts | 187° |
| 2026-05-05 15:00 | 36.18181 | -75.64362 | 6349 ft | 181 kts | 187° |
| 2026-05-05 15:00 | 36.17358 | -75.64454 | 5977 ft | 178 kts | 187° |
| 2026-05-05 15:00 | 36.15746 | -75.64633 | 5288 ft | 173 kts | 188° |
| 2026-05-05 15:00 | 36.14555 | -75.64765 | 4798 ft | 171 kts | 188° |
| 2026-05-05 15:01 | 36.13366 | -75.64898 | 4184 ft | 173 kts | 188° |
| 2026-05-05 15:01 | 36.12164 | -75.65032 | 3566 ft | 174 kts | 188° |
| 2026-05-05 15:01 | 36.10960 | -75.65166 | 2949 ft | 173 kts | 188° |
| 2026-05-05 15:01 | 36.09772 | -75.65296 | 2340 ft | 169 kts | 187° |
| 2026-05-05 15:02 | 36.08654 | -75.64983 | 1999 ft | 156 kts | 165° |
| 2026-05-05 15:02 | 36.07691 | -75.64974 | 1769 ft | 141 kts | 206° |
| 2026-05-05 15:02 | 36.06740 | -75.65443 | 1320 ft | 154 kts | 200° |
| 2026-05-05 15:02 | 36.05732 | -75.65809 | 970 ft | 142 kts | 196° |
| 2026-05-05 15:03 | 36.04799 | -75.66133 | 694 ft | 137 kts | 197° |
| 2026-05-05 15:03 | 36.03940 | -75.66428 | 471 ft | 115 kts | 195° |
| 2026-05-05 15:03 | 36.03271 | -75.66645 | 324 ft | 87 kts | 197° |
| 2026-05-05 15:03 | 36.02707 | -75.66840 | 183 ft | 83 kts | 194° |
| 2026-05-05 15:04 | 36.02169 | -75.67025 | 34 ft | 75 kts | 199° |
| 2026-05-05 15:04 | 36.01757 | -75.67162 | 19 ft | 44 kts | 195° |
| 2026-05-05 15:04 | 36.01565 | -75.67224 | 15 ft | 20 kts | 195° |
| 2026-05-05 15:04 | 36.01490 | -75.67248 | 16 ft | 5 kts | 193° |
| 2026-05-05 15:05 | 36.01440 | -75.67208 | 18 ft | 4 kts | 195° |
| 2026-05-05 15:05 | 36.01408 | -75.67219 | 18 ft | 5 kts | 189° |
| 2026-05-05 15:05 | 36.01408 | -75.67191 | 18 ft | 4 kts | 12° |
| 2026-05-05 15:06 | 36.01415 | -75.67189 | 18 ft | 0 kts | 15° |